createdAt,value
2022-10-05T00:00:57.258Z,7.50
2022-10-05T00:03:25.162Z,8.02
2022-10-05T00:05:51.508Z,8.18
2022-10-05T00:08:19.103Z,8.57
2022-10-05T00:10:45.791Z,7.78
2022-10-05T00:13:30.941Z,8.20
2022-10-05T00:16:15.989Z,8.75
2022-10-05T00:18:43.442Z,8.25
2022-10-05T00:21:17.242Z,8.20
2022-10-05T00:23:43.623Z,7.97
2022-10-05T00:26:16.701Z,7.97
2022-10-05T00:28:43.038Z,7.88
2022-10-05T00:31:17.840Z,7.80
2022-10-05T00:33:44.237Z,7.45
2022-10-05T00:36:10.761Z,7.68
2022-10-05T00:38:37.290Z,8.55
2022-10-05T00:41:06.652Z,8.40
2022-10-05T00:43:48.231Z,8.77
2022-10-05T00:46:21.476Z,7.60
2022-10-05T00:48:53.951Z,8.32
2022-10-05T00:51:23.373Z,8.88
2022-10-05T00:53:58.918Z,8.00
2022-10-05T00:56:32.331Z,9.65
2022-10-05T00:59:17.642Z,8.07
2022-10-05T01:01:43.958Z,9.02
2022-10-05T01:04:18.218Z,8.23
2022-10-05T01:06:51.019Z,8.48
2022-10-05T01:09:36.002Z,7.88
2022-10-05T01:12:25.203Z,8.70
2022-10-05T01:15:10.337Z,7.70
2022-10-05T01:17:36.672Z,7.55
2022-10-05T01:20:21.866Z,7.32
2022-10-05T01:22:51.261Z,9.43
2022-10-05T01:25:20.586Z,8.57
2022-10-05T01:27:54.818Z,7.80
2022-10-05T01:30:22.033Z,7.18
2022-10-05T01:33:03.693Z,7.57
2022-10-05T01:35:48.818Z,7.65
2022-10-05T01:38:29.606Z,7.78
2022-10-05T01:41:12.532Z,6.40
2022-10-05T01:43:46.796Z,6.45
2022-10-05T01:46:22.393Z,7.07
2022-10-05T01:48:54.989Z,7.40
2022-10-05T01:51:21.297Z,6.55
2022-10-05T01:54:03.427Z,7.15
2022-10-05T01:56:43.376Z,6.90
2022-10-05T01:59:25.492Z,7.32
2022-10-05T02:02:00.270Z,6.82
2022-10-05T02:05:02.580Z,6.72
2022-10-05T02:07:49.611Z,6.28
2022-10-05T02:10:19.120Z,6.60
2022-10-05T02:12:46.899Z,7.22
2022-10-05T02:15:22.641Z,7.32
2022-10-05T02:17:50.344Z,6.50
2022-10-05T02:20:20.436Z,7.20
2022-10-05T02:22:48.160Z,6.37
2022-10-05T02:25:16.417Z,6.22
2022-10-05T02:27:54.874Z,6.57
2022-10-05T02:30:21.743Z,6.13
2022-10-05T02:32:53.131Z,6.57
2022-10-05T02:35:21.378Z,6.32
2022-10-05T02:37:47.690Z,6.22
2022-10-05T02:40:32.878Z,6.28
2022-10-05T02:43:18.141Z,5.85
2022-10-05T02:46:17.049Z,6.43
2022-10-05T02:49:06.450Z,6.93
2022-10-05T02:51:32.757Z,5.72
2022-10-05T02:54:17.914Z,6.20
2022-10-05T02:56:59.528Z,5.40
2022-10-05T02:59:29.013Z,5.97
2022-10-05T03:01:55.369Z,6.05
2022-10-05T03:04:40.607Z,5.70
2022-10-05T03:07:06.974Z,5.32
2022-10-05T03:09:39.473Z,5.13
2022-10-05T03:12:15.913Z,4.70
2022-10-05T03:14:48.327Z,4.53
2022-10-05T03:17:19.161Z,4.97
2022-10-05T03:20:00.840Z,4.55
2022-10-05T03:22:33.265Z,4.10
2022-10-05T03:25:11.853Z,4.50
2022-10-05T03:27:44.306Z,4.13
2022-10-05T03:30:16.432Z,4.47
2022-10-05T03:33:01.393Z,4.97
2022-10-05T03:35:30.031Z,4.82
2022-10-05T03:37:56.342Z,4.60
2022-10-05T03:40:29.521Z,4.70
2022-10-05T03:43:05.159Z,4.90
2022-10-05T03:45:37.905Z,4.60
2022-10-05T03:48:09.917Z,4.88
2022-10-05T03:50:45.109Z,4.63
2022-10-05T03:53:14.509Z,4.32
2022-10-05T03:55:43.941Z,4.28
2022-10-05T03:58:45.816Z,4.65
2022-10-05T04:01:21.220Z,4.10
2022-10-05T04:03:50.039Z,4.90
2022-10-05T04:06:18.834Z,4.35
2022-10-05T04:08:47.883Z,4.18
2022-10-05T04:11:18.309Z,3.70
2022-10-05T04:13:51.964Z,4.00
2022-10-05T04:16:23.101Z,5.20
2022-10-05T04:19:08.219Z,4.25
2022-10-05T04:21:37.929Z,4.28
2022-10-05T04:24:17.905Z,4.85
2022-10-05T04:27:00.362Z,5.00
2022-10-05T04:29:45.186Z,3.95
2022-10-05T04:32:20.675Z,4.35
2022-10-05T04:34:58.405Z,4.88
2022-10-05T04:37:46.368Z,4.45
2022-10-05T04:40:17.792Z,4.47
2022-10-05T04:42:58.125Z,4.80
2022-10-05T04:45:34.153Z,4.80
2022-10-05T04:48:11.212Z,5.28
2022-10-05T04:50:46.874Z,6.03
2022-10-05T04:53:25.599Z,5.70
2022-10-05T04:56:02.451Z,5.75
2022-10-05T04:58:30.166Z,5.65
2022-10-05T05:01:14.981Z,5.55
2022-10-05T05:04:16.915Z,6.32
2022-10-05T05:07:01.767Z,6.60
2022-10-05T05:09:46.569Z,5.78
2022-10-05T05:12:19.575Z,7.30
2022-10-05T05:14:59.262Z,6.13
2022-10-05T05:17:41.035Z,5.70
2022-10-05T05:20:07.378Z,5.53
2022-10-05T05:22:40.261Z,5.63
2022-10-05T05:25:20.296Z,5.63
2022-10-05T05:28:01.077Z,5.28
2022-10-05T05:30:38.968Z,5.43
2022-10-05T05:33:14.496Z,5.15
2022-10-05T05:35:50.053Z,5.80
2022-10-05T05:38:38.710Z,6.10
2022-10-05T05:41:08.541Z,5.72
2022-10-05T05:43:50.007Z,6.18
2022-10-05T05:46:16.545Z,5.82
2022-10-05T05:48:47.200Z,5.15
2022-10-05T05:51:27.597Z,5.53
2022-10-05T05:53:57.234Z,5.30
2022-10-05T05:56:32.786Z,5.05
2022-10-05T05:58:59.173Z,4.90
2022-10-05T06:01:33.355Z,4.90
2022-10-05T06:04:09.450Z,5.95
2022-10-05T06:06:38.094Z,5.68
2022-10-05T06:09:06.837Z,6.90
2022-10-05T06:11:38.059Z,6.60
2022-10-05T06:14:23.463Z,6.60
2022-10-05T06:16:59.013Z,6.50
2022-10-05T06:19:26.620Z,7.07
2022-10-05T06:22:02.611Z,7.20
2022-10-05T06:24:36.654Z,6.93
2022-10-05T06:27:09.236Z,6.85
2022-10-05T06:29:53.429Z,6.07
2022-10-05T06:32:19.743Z,6.93
2022-10-05T06:35:15.665Z,6.90
2022-10-05T06:37:42.097Z,6.07
2022-10-05T06:40:08.528Z,5.72
2022-10-05T06:43:04.500Z,6.78
2022-10-05T06:45:39.753Z,6.95
2022-10-05T06:48:26.428Z,7.30
2022-10-05T06:50:56.603Z,6.10
2022-10-05T06:53:35.396Z,5.82
2022-10-05T06:56:08.808Z,5.38
2022-10-05T06:58:38.196Z,5.90
2022-10-05T07:01:04.693Z,5.63
2022-10-05T07:03:38.946Z,5.03
2022-10-05T07:06:15.974Z,5.85
2022-10-05T07:09:01.148Z,5.93
2022-10-05T07:11:27.470Z,6.35
2022-10-05T07:14:12.610Z,5.18
2022-10-05T07:16:42.064Z,5.50
2022-10-05T07:19:17.648Z,4.82
2022-10-05T07:22:02.990Z,4.65
2022-10-05T07:24:31.866Z,4.40
2022-10-05T07:27:16.765Z,3.95
2022-10-05T07:30:01.330Z,4.18
2022-10-05T07:32:27.702Z,3.90
2022-10-05T07:35:01.255Z,3.13
2022-10-05T07:37:49.269Z,3.38
2022-10-05T07:40:19.546Z,3.78
2022-10-05T07:42:59.955Z,2.88
2022-10-05T07:45:26.442Z,3.13
2022-10-05T07:47:57.752Z,3.53
2022-10-05T07:50:27.308Z,3.70
2022-10-05T07:52:58.049Z,3.50
2022-10-05T07:55:26.100Z,3.72
2022-10-05T07:58:01.803Z,3.50
2022-10-05T08:00:47.270Z,3.97
2022-10-05T08:03:38.405Z,3.60
2022-10-05T08:08:50.031Z,4.20
2022-10-05T08:11:24.580Z,4.07
2022-10-05T08:14:16.688Z,4.15
2022-10-05T08:16:43.373Z,4.50
2022-10-05T08:19:46.852Z,4.40
2022-10-05T08:22:19.421Z,5.63
2022-10-05T08:24:52.235Z,4.40
2022-10-05T08:27:32.395Z,4.50
2022-10-05T08:30:01.420Z,4.60
2022-10-05T08:32:30.519Z,4.05
2022-10-05T08:35:15.517Z,3.92
2022-10-05T08:37:43.819Z,3.55
2022-10-05T08:40:21.474Z,4.97
2022-10-05T08:42:47.878Z,4.15
2022-10-05T08:45:34.491Z,4.38
2022-10-05T08:48:19.515Z,4.22
2022-10-05T08:51:02.454Z,3.97
2022-10-05T08:53:47.526Z,4.18
2022-10-05T08:56:19.068Z,4.20
2022-10-05T08:58:57.418Z,4.28
2022-10-05T09:01:27.242Z,5.20
2022-10-05T09:03:53.715Z,4.80
2022-10-05T09:06:22.407Z,4.60
2022-10-05T09:08:51.557Z,4.88
2022-10-05T09:11:17.870Z,5.18
2022-10-05T09:14:00.210Z,4.93
2022-10-05T09:16:44.235Z,5.50
2022-10-05T09:19:22.904Z,5.18
2022-10-05T09:21:52.279Z,5.07
2022-10-05T09:24:36.677Z,5.50
2022-10-05T09:27:15.166Z,5.07
2022-10-05T09:29:53.720Z,5.75
2022-10-05T09:32:35.326Z,5.00
2022-10-05T09:35:03.497Z,5.15
2022-10-05T09:37:38.780Z,4.72
2022-10-05T09:40:23.977Z,4.60
2022-10-05T09:43:10.977Z,4.28
2022-10-05T09:45:49.003Z,3.75
2022-10-05T09:48:31.008Z,3.17
2022-10-05T09:51:06.622Z,3.00
2022-10-05T09:53:41.813Z,2.90
2022-10-05T09:56:09.181Z,2.60
2022-10-05T09:58:54.199Z,2.33
2022-10-05T10:01:33.528Z,2.40
2022-10-05T10:04:25.854Z,2.10
2022-10-05T10:06:55.738Z,1.80
2022-10-05T10:09:40.006Z,1.70
2022-10-05T10:12:12.388Z,1.73
2022-10-05T10:14:39.228Z,1.70
2022-10-05T10:17:10.387Z,1.75
2022-10-05T10:19:53.056Z,1.50
2022-10-05T10:22:43.325Z,1.23
2022-10-05T10:25:28.530Z,1.40
2022-10-05T10:28:06.865Z,1.13
2022-10-05T10:30:51.839Z,1.42
2022-10-05T10:33:18.467Z,1.35
2022-10-05T10:35:51.112Z,1.20
2022-10-05T10:38:20.270Z,1.50
2022-10-05T10:41:04.602Z,1.60
2022-10-05T10:43:41.043Z,1.55
2022-10-05T10:46:17.995Z,2.00
2022-10-05T10:49:00.174Z,2.20
2022-10-05T10:51:45.143Z,2.20
2022-10-05T10:54:19.382Z,2.75
2022-10-05T10:57:04.716Z,2.67
2022-10-05T10:59:44.803Z,4.00
2022-10-05T11:02:23.792Z,3.77
2022-10-05T11:05:23.202Z,3.92
2022-10-05T11:07:49.514Z,4.25
2022-10-05T11:10:31.319Z,4.15
2022-10-05T11:13:00.540Z,4.85
2022-10-05T11:15:29.905Z,4.35
2022-10-05T11:18:15.646Z,5.85
2022-10-05T11:20:56.136Z,4.78
2022-10-05T11:23:48.305Z,4.45
2022-10-05T11:26:37.909Z,5.10
2022-10-05T11:29:23.107Z,3.40
2022-10-05T11:32:01.644Z,5.57
2022-10-05T11:34:46.706Z,6.07
2022-10-05T11:37:36.192Z,6.65
2022-10-05T11:40:22.490Z,5.70
2022-10-05T11:43:09.229Z,5.10
2022-10-05T11:45:51.844Z,5.70
2022-10-05T11:48:36.684Z,5.53
2022-10-05T11:51:11.623Z,5.55
2022-10-05T11:53:43.693Z,7.53
2022-10-05T11:56:34.469Z,5.75
2022-10-05T11:59:05.117Z,6.25
2022-10-05T12:01:34.725Z,5.45
2022-10-05T12:04:19.916Z,6.15
2022-10-05T12:06:46.448Z,5.88
2022-10-05T12:09:22.239Z,5.70
2022-10-05T12:11:57.846Z,5.50
2022-10-05T12:14:32.235Z,5.25
2022-10-05T12:17:17.420Z,5.13
2022-10-05T12:19:45.676Z,5.68
2022-10-05T12:22:15.542Z,5.57
2022-10-05T12:24:44.893Z,4.90
2022-10-05T12:27:13.886Z,5.28
2022-10-05T12:29:49.243Z,5.45
2022-10-05T12:32:30.411Z,5.78
2022-10-05T12:35:03.282Z,5.35
2022-10-05T12:37:48.300Z,4.80
2022-10-05T12:40:14.657Z,5.22
2022-10-05T12:42:45.576Z,5.18
2022-10-05T12:47:57.128Z,4.90
2022-10-05T12:50:23.497Z,5.82
2022-10-05T12:52:52.853Z,5.35
2022-10-05T12:55:42.737Z,5.18
2022-10-05T12:58:15.287Z,4.95
2022-10-05T13:00:49.004Z,5.90
2022-10-05T13:03:23.434Z,5.65
2022-10-05T13:06:02.492Z,5.07
2022-10-05T13:08:48.103Z,5.13
2022-10-05T13:11:25.093Z,5.70
2022-10-05T13:13:51.435Z,5.55
2022-10-05T13:16:17.938Z,5.47
2022-10-05T13:19:02.678Z,5.40
2022-10-05T13:21:48.696Z,5.53
2022-10-05T13:24:23.281Z,5.15
2022-10-05T13:26:53.583Z,6.07
2022-10-05T13:29:25.647Z,5.55
2022-10-05T13:32:04.929Z,5.55
2022-10-05T13:34:42.042Z,5.28
2022-10-05T13:37:12.751Z,4.88
2022-10-05T13:39:59.474Z,4.68
2022-10-05T13:42:39.997Z,5.18
2022-10-05T13:45:14.034Z,4.93
2022-10-05T13:47:48.616Z,4.70
2022-10-05T13:50:23.466Z,5.60
2022-10-05T13:52:59.825Z,5.05
2022-10-05T13:55:35.465Z,5.32
2022-10-05T13:58:05.651Z,5.70
2022-10-05T14:00:34.218Z,4.97
2022-10-05T14:03:03.624Z,5.22
2022-10-05T14:05:30.921Z,6.05
2022-10-05T14:08:10.066Z,6.07
2022-10-05T14:10:39.613Z,5.45
2022-10-05T14:13:20.961Z,5.18
2022-10-05T14:16:07.949Z,6.13
2022-10-05T14:18:36.979Z,6.10
2022-10-05T14:21:12.708Z,5.70
2022-10-05T14:23:39.393Z,5.97
2022-10-05T14:26:20.184Z,6.70
2022-10-05T14:29:15.286Z,5.30
2022-10-05T14:31:50.922Z,7.47
2022-10-05T14:34:26.858Z,6.85
2022-10-05T14:37:18.081Z,5.75
2022-10-05T14:42:15.530Z,6.13
2022-10-05T14:47:24.629Z,5.40
2022-10-05T14:50:16.638Z,5.28
2022-10-05T14:53:10.169Z,5.18
2022-10-05T14:55:39.608Z,5.35
2022-10-05T14:58:13.497Z,4.55
2022-10-05T15:00:52.819Z,4.50
2022-10-05T15:03:20.747Z,4.45
2022-10-05T15:05:50.360Z,3.92
2022-10-05T15:08:20.316Z,4.03
2022-10-05T15:10:49.964Z,5.30
2022-10-05T15:13:18.716Z,3.75
2022-10-05T15:15:47.807Z,4.13
2022-10-05T15:18:34.961Z,4.03
2022-10-05T15:21:13.500Z,3.70
2022-10-05T15:23:40.089Z,3.60
2022-10-05T15:26:07.601Z,4.10
2022-10-05T15:28:48.392Z,4.35
2022-10-05T15:31:23.949Z,3.80
2022-10-05T15:34:01.680Z,4.25
2022-10-05T15:36:43.012Z,3.78
2022-10-05T15:39:15.412Z,4.32
2022-10-05T15:41:51.588Z,3.85
2022-10-05T15:44:36.619Z,3.70
2022-10-05T15:47:05.910Z,4.63
2022-10-05T15:49:50.814Z,4.82
2022-10-05T15:52:29.412Z,4.68
2022-10-05T15:54:58.948Z,4.70
2022-10-05T15:57:30.478Z,5.10
2022-10-05T15:59:56.798Z,4.57
2022-10-05T16:02:26.001Z,5.25
2022-10-05T16:05:12.710Z,5.38
2022-10-05T16:08:04.040Z,5.88
2022-10-05T16:10:33.158Z,5.82
2022-10-05T16:13:04.938Z,6.40
2022-10-05T16:15:34.511Z,5.65
2022-10-05T16:18:03.853Z,5.82
2022-10-05T16:20:50.070Z,5.55
2022-10-05T16:23:21.811Z,6.47
2022-10-05T16:25:54.305Z,6.47
2022-10-05T16:28:24.037Z,6.40
2022-10-05T16:30:58.721Z,6.53
2022-10-05T16:33:34.661Z,6.78
2022-10-05T16:36:03.751Z,5.97
2022-10-05T16:38:40.285Z,6.68
2022-10-05T16:41:07.978Z,5.50
2022-10-05T16:43:49.300Z,5.35
2022-10-05T16:46:21.892Z,7.40
2022-10-05T16:49:08.853Z,5.50
2022-10-05T16:51:43.370Z,6.05
2022-10-05T16:54:18.810Z,5.40
2022-10-05T16:56:48.803Z,6.28
2022-10-05T16:59:18.204Z,6.00
2022-10-05T17:01:51.973Z,5.85
2022-10-05T17:04:28.638Z,6.18
2022-10-05T17:06:58.044Z,6.05
2022-10-05T17:09:43.248Z,6.20
2022-10-05T17:12:29.424Z,5.80
2022-10-05T17:15:01.865Z,6.05
2022-10-05T17:17:49.045Z,6.50
2022-10-05T17:20:26.810Z,6.65
2022-10-05T17:22:57.887Z,7.20
2022-10-05T17:25:34.130Z,7.32
2022-10-05T17:28:18.934Z,6.93
2022-10-05T17:30:53.860Z,7.95
2022-10-05T17:33:29.000Z,9.15
2022-10-05T17:35:56.779Z,9.02
2022-10-05T17:38:43.424Z,9.23
2022-10-05T17:41:09.754Z,7.55
2022-10-05T17:43:39.457Z,8.02
2022-10-05T17:46:06.971Z,8.65
2022-10-05T17:48:49.594Z,8.10
2022-10-05T17:51:36.136Z,8.55
2022-10-05T17:54:53.334Z,8.23
2022-10-05T17:57:19.991Z,8.05
2022-10-05T17:59:56.942Z,8.77
2022-10-05T18:02:36.210Z,8.88
2022-10-05T18:05:12.669Z,9.07
2022-10-05T18:07:40.398Z,8.93
2022-10-05T18:10:09.828Z,10.50
2022-10-05T18:12:36.165Z,10.13
2022-10-05T18:15:12.951Z,9.93
2022-10-05T18:17:43.831Z,9.80
2022-10-05T18:20:31.715Z,9.63
2022-10-05T18:23:07.301Z,10.18
2022-10-05T18:25:38.171Z,10.40
2022-10-05T18:28:23.217Z,10.45
2022-10-05T18:31:03.968Z,9.45
2022-10-05T18:33:40.620Z,10.27
2022-10-05T18:36:16.215Z,9.07
2022-10-05T18:38:49.158Z,8.90
2022-10-05T18:41:21.589Z,9.73
2022-10-05T18:43:48.002Z,10.60
2022-10-05T18:46:14.400Z,10.65
2022-10-05T18:48:40.752Z,11.05
2022-10-05T18:51:07.086Z,9.80
2022-10-05T18:53:44.789Z,10.18
2022-10-05T18:56:14.187Z,10.23
2022-10-05T18:58:53.201Z,9.60
2022-10-05T19:01:41.311Z,9.98
2022-10-05T19:04:14.685Z,9.23
2022-10-05T19:07:04.902Z,10.15
2022-10-05T19:09:49.584Z,8.40
2022-10-05T19:12:39.282Z,8.93
2022-10-05T19:15:26.039Z,7.90
2022-10-05T19:18:15.841Z,7.95
2022-10-05T19:21:05.202Z,7.95
2022-10-05T19:23:44.629Z,8.23
2022-10-05T19:26:23.605Z,8.43
2022-10-05T19:28:59.434Z,8.57
2022-10-05T19:31:45.483Z,8.55
2022-10-05T19:34:37.824Z,8.20
2022-10-05T19:37:33.334Z,7.70
2022-10-05T19:40:09.750Z,8.07
2022-10-05T19:42:46.091Z,8.27
2022-10-05T19:45:15.447Z,8.02
2022-10-05T19:47:47.898Z,8.90
2022-10-05T19:50:23.449Z,9.95
2022-10-05T19:52:51.198Z,9.43
2022-10-05T19:55:20.571Z,9.25
2022-10-05T19:57:51.082Z,9.18
2022-10-05T20:00:34.531Z,8.52
2022-10-05T20:03:17.759Z,9.20
2022-10-05T20:05:44.211Z,9.65
2022-10-05T20:08:14.768Z,10.18
2022-10-05T20:10:41.126Z,9.98
2022-10-05T20:13:19.021Z,10.05
2022-10-05T20:16:28.347Z,8.43
2022-10-05T20:19:13.232Z,9.18
2022-10-05T20:21:47.233Z,7.97
2022-10-05T20:24:13.597Z,8.73
2022-10-05T20:27:06.214Z,8.48
2022-10-05T20:29:34.048Z,8.40
2022-10-05T20:32:01.129Z,8.43
2022-10-05T20:34:27.520Z,8.85
2022-10-05T20:36:53.940Z,9.52
2022-10-05T20:39:21.337Z,10.20
2022-10-05T20:41:47.892Z,9.65
2022-10-05T20:44:14.505Z,9.43
2022-10-05T20:46:43.903Z,9.05
2022-10-05T20:49:11.548Z,10.15
2022-10-05T20:51:40.063Z,9.48
2022-10-05T20:54:07.303Z,9.30
2022-10-05T20:56:33.790Z,8.88
2022-10-05T20:59:00.165Z,9.35
2022-10-05T21:01:28.824Z,8.30
2022-10-05T21:03:55.614Z,8.80
2022-10-05T21:06:22.200Z,8.52
2022-10-05T21:08:51.348Z,8.55
2022-10-05T21:11:17.818Z,7.93
2022-10-05T21:13:47.301Z,8.82
2022-10-05T21:16:15.518Z,8.23
2022-10-05T21:18:42.700Z,8.18
2022-10-05T21:21:09.124Z,7.85
2022-10-05T21:23:35.559Z,8.00
2022-10-05T21:26:02.140Z,8.48
2022-10-05T21:28:29.368Z,8.88
2022-10-05T21:30:56.577Z,9.77
2022-10-05T21:33:22.972Z,9.57
2022-10-05T21:35:49.405Z,10.07
2022-10-05T21:38:15.796Z,9.45
2022-10-05T21:40:43.411Z,10.40
2022-10-05T21:43:09.922Z,9.82
2022-10-05T21:45:36.469Z,10.90
2022-10-05T21:48:03.065Z,9.25
2022-10-05T21:50:29.465Z,9.95
2022-10-05T21:52:55.822Z,10.77
2022-10-05T21:55:22.301Z,10.02
2022-10-05T21:57:48.650Z,9.80
2022-10-05T22:00:16.397Z,9.63
2022-10-05T22:02:42.783Z,9.57
2022-10-05T22:05:09.429Z,9.15
2022-10-05T22:07:35.788Z,10.02
2022-10-05T22:10:02.732Z,10.90
2022-10-05T22:12:29.074Z,10.05
2022-10-05T22:14:55.625Z,10.65
2022-10-05T22:17:24.448Z,10.40
2022-10-05T22:19:51.241Z,10.85
2022-10-05T22:22:17.596Z,10.40
2022-10-05T22:24:43.950Z,9.52
2022-10-05T22:27:10.308Z,11.00
2022-10-05T22:29:36.813Z,10.18
2022-10-05T22:32:03.301Z,10.15
2022-10-05T22:34:29.679Z,10.00
2022-10-05T22:36:56.058Z,10.75
2022-10-05T22:39:22.436Z,9.65
2022-10-05T22:41:48.854Z,8.90
2022-10-05T22:44:15.220Z,9.05
2022-10-05T22:46:41.544Z,9.43
2022-10-05T22:49:08.010Z,7.75
2022-10-05T22:51:34.678Z,6.25
2022-10-05T22:54:01.004Z,6.97
2022-10-05T22:56:27.625Z,7.40
2022-10-05T22:58:54.003Z,6.70
2022-10-05T23:01:20.936Z,6.72
2022-10-05T23:03:47.531Z,5.78
2022-10-05T23:06:15.423Z,5.85
2022-10-05T23:08:41.952Z,6.50
2022-10-05T23:11:09.657Z,5.85
2022-10-05T23:13:36.028Z,5.63
2022-10-05T23:16:12.857Z,6.22
2022-10-05T23:18:39.540Z,5.50
2022-10-05T23:21:07.781Z,5.85
2022-10-05T23:23:37.686Z,5.68
2022-10-05T23:26:08.012Z,2.20
2022-10-05T23:28:34.658Z,1.33
2022-10-05T23:31:05.524Z,1.33
2022-10-05T23:33:32.337Z,1.10
2022-10-05T23:36:06.627Z,0.85
2022-10-05T23:38:33.894Z,0.57
2022-10-05T23:41:00.767Z,0.50
2022-10-05T23:43:27.680Z,0.47
2022-10-05T23:45:54.689Z,0.43
2022-10-05T23:48:21.405Z,1.60
2022-10-05T23:50:48.881Z,0.60
2022-10-05T23:53:18.462Z,0.50
2022-10-05T23:55:45.084Z,0.50
2022-10-05T23:58:12.106Z,0.60
